Time;durP1;ratioP1;P1;durP2;ratioP2;P2;SDS_P1;SDS_P2;PMS_P1;PMS_P2;Temp;Humidity;BMP_temperature;BMP_pressure;BME280_temperature;BME280_humidity;BME280_pressure;Samples;Min_cycle;Max_cycle;Signal;HPM_P1;HPM_P2
2022/11/03 00:00:34;;;;;;;3.90;2.40;;;;;;;;;;4971237;28;20311;-85
2022/11/03 00:03:04;;;;;;;4.70;2.40;;;;;;;;;;5004465;28;20756;-84
2022/11/03 00:06:11;;;;;;;4.33;2.43;;;;;;;;;;4993736;28;20552;-85
2022/11/03 00:08:18;;;;;;;4.47;2.27;;;;;;;;;;5018078;28;20243;-82
2022/11/03 00:10:55;;;;;;;3.20;2.10;;;;;;;;;;5020954;28;20233;-84
2022/11/03 00:13:21;;;;;;;4.47;2.03;;;;;;;;;;5011027;28;20236;-85
2022/11/03 00:15:47;;;;;;;4.07;2.10;;;;;;;;;;5008188;28;20216;-85
2022/11/03 00:18:16;;;;;;;4.13;2.20;;;;;;;;;;4984748;28;20217;-85
2022/11/03 00:20:44;;;;;;;4.53;2.07;;;;;;;;;;4989489;28;20213;-85
2022/11/03 00:23:11;;;;;;;3.37;1.90;;;;;;;;;;4987873;28;20311;-85
2022/11/03 00:25:39;;;;;;;3.97;2.20;;;;;;;;;;4993258;28;20239;-85
2022/11/03 00:28:05;;;;;;;5.43;2.30;;;;;;;;;;5013885;28;20264;-84
2022/11/03 00:30:30;;;;;;;4.00;2.60;;;;;;;;;;4993295;28;20227;-84
2022/11/03 00:32:57;;;;;;;5.93;2.37;;;;;;;;;;4993940;28;20216;-83
2022/11/03 00:35:22;;;;;;;5.00;2.20;;;;;;;;;;5008518;28;20865;-84
2022/11/03 00:37:50;;;;;;;5.23;2.50;;;;;;;;;;5006599;28;20224;-84
2022/11/03 00:40:16;;;;;;;2.90;1.60;;;;;;;;;;5012660;28;20233;-84
2022/11/03 00:42:42;;;;;;;3.17;2.00;;;;;;;;;;4978577;28;20248;-83
2022/11/03 00:45:10;;;;;;;3.73;2.20;;;;;;;;;;4986390;28;20316;-84
2022/11/03 00:48:28;;;;;;;5.17;2.33;;;;;;;;;;5022842;28;20228;-84
2022/11/03 00:50:21;;;;;;;4.33;1.73;;;;;;;;;;5007182;28;20256;-85
2022/11/03 00:52:46;;;;;;;5.23;1.80;;;;;;;;;;4993945;28;20223;-84
2022/11/03 00:55:12;;;;;;;7.10;1.70;;;;;;;;;;5013590;28;20292;-83
2022/11/03 00:57:37;;;;;;;2.40;1.83;;;;;;;;;;4990851;28;20218;-84
2022/11/03 01:00:03;;;;;;;3.07;1.53;;;;;;;;;;5000869;28;20282;-83
2022/11/03 01:02:32;;;;;;;4.40;1.83;;;;;;;;;;5001400;28;20303;-86
2022/11/03 01:07:46;;;;;;;4.20;1.83;;;;;;;;;;5007514;28;20667;-84
2022/11/03 01:10:11;;;;;;;3.10;1.60;;;;;;;;;;4996235;28;20220;-84
2022/11/03 01:12:37;;;;;;;4.80;1.73;;;;;;;;;;4983344;28;20229;-84
2022/11/03 01:15:02;;;;;;;5.20;1.63;;;;;;;;;;5020901;28;20972;-84
2022/11/03 01:17:28;;;;;;;5.30;1.40;;;;;;;;;;4987145;28;20244;-84
2022/11/03 01:19:54;;;;;;;2.63;1.50;;;;;;;;;;5033137;28;20221;-85
2022/11/03 01:22:20;;;;;;;4.90;1.50;;;;;;;;;;4987500;28;20229;-85
2022/11/03 01:24:45;;;;;;;4.60;1.50;;;;;;;;;;4970341;28;20277;-85
2022/11/03 01:27:16;;;;;;;4.50;1.23;;;;;;;;;;5026042;28;20278;-84
2022/11/03 01:29:41;;;;;;;2.63;1.40;;;;;;;;;;4994506;28;20227;-84
2022/11/03 01:32:07;;;;;;;4.83;1.67;;;;;;;;;;5008047;28;20229;-85
2022/11/03 01:34:33;;;;;;;4.43;1.70;;;;;;;;;;4993601;28;20570;-85
2022/11/03 01:37:00;;;;;;;4.57;2.00;;;;;;;;;;5002345;28;20271;-86
2022/11/03 01:39:26;;;;;;;3.00;1.80;;;;;;;;;;4985598;28;20246;-86
2022/11/03 01:41:54;;;;;;;5.20;1.40;;;;;;;;;;4986202;28;20591;-85
2022/11/03 01:44:23;;;;;;;2.67;1.40;;;;;;;;;;4986885;28;20220;-85
2022/11/03 01:47:02;;;;;;;3.50;1.60;;;;;;;;;;5027417;28;20227;-86
2022/11/03 01:49:57;;;;;;;3.33;1.47;;;;;;;;;;5002166;28;20246;-83
2022/11/03 01:52:32;;;;;;;2.50;1.40;;;;;;;;;;4972054;28;21829;-85
2022/11/03 01:55:01;;;;;;;6.23;1.50;;;;;;;;;;5000654;28;20809;-84
2022/11/03 01:57:32;;;;;;;2.10;1.20;;;;;;;;;;4987032;28;20221;-85
2022/11/03 01:59:57;;;;;;;4.13;1.67;;;;;;;;;;4991604;28;20221;-85
2022/11/03 02:02:25;;;;;;;3.63;1.63;;;;;;;;;;4984893;28;20224;-83
2022/11/03 02:04:50;;;;;;;6.17;1.50;;;;;;;;;;4980023;28;20271;-84
2022/11/03 02:07:24;;;;;;;4.63;1.90;;;;;;;;;;4976673;28;20221;-81
2022/11/03 02:09:49;;;;;;;5.03;1.50;;;;;;;;;;5013349;28;20220;-85
2022/11/03 02:12:15;;;;;;;6.50;1.50;;;;;;;;;;5022760;28;20224;-85
2022/11/03 02:14:47;;;;;;;2.27;1.40;;;;;;;;;;4991483;28;20216;-84
2022/11/03 02:17:13;;;;;;;3.03;1.33;;;;;;;;;;5025481;28;20858;-86
2022/11/03 02:20:14;;;;;;;11.47;5.63;;;;;;;;;;4985483;28;20217;-85
2022/11/03 02:22:46;;;;;;;12.07;7.37;;;;;;;;;;5012850;28;20343;-86
2022/11/03 02:25:29;;;;;;;6.83;3.37;;;;;;;;;;4990135;28;20231;-85
2022/11/03 02:27:55;;;;;;;3.70;1.77;;;;;;;;;;5035682;28;20264;-86
2022/11/03 02:30:20;;;;;;;3.83;2.10;;;;;;;;;;4992407;28;20216;-85
2022/11/03 02:33:27;;;;;;;4.53;1.60;;;;;;;;;;5008548;28;20221;-84
2022/11/03 02:35:58;;;;;;;3.63;1.50;;;;;;;;;;5022418;28;20244;-85
2022/11/03 02:38:26;;;;;;;3.57;1.40;;;;;;;;;;4987487;28;20236;-85
2022/11/03 02:40:53;;;;;;;3.80;1.50;;;;;;;;;;4981806;28;20269;-83
2022/11/03 02:43:18;;;;;;;4.07;1.80;;;;;;;;;;5002189;28;20220;-83
2022/11/03 02:45:44;;;;;;;3.80;1.50;;;;;;;;;;5040359;28;20247;-84
2022/11/03 02:48:09;;;;;;;2.73;1.53;;;;;;;;;;5000634;28;20240;-83
2022/11/03 02:50:34;;;;;;;4.87;1.57;;;;;;;;;;5030888;28;20220;-84
2022/11/03 02:53:00;;;;;;;4.10;1.57;;;;;;;;;;5014454;28;20287;-84
2022/11/03 02:55:37;;;;;;;2.30;1.30;;;;;;;;;;4980925;28;20238;-83
2022/11/03 02:58:14;;;;;;;6.10;1.83;;;;;;;;;;4997224;28;20336;-83
2022/11/03 03:00:53;;;;;;;3.67;1.70;;;;;;;;;;5026353;28;20232;-86
2022/11/03 03:03:41;;;;;;;5.13;1.70;;;;;;;;;;4974996;28;20287;-85
2022/11/03 03:06:09;;;;;;;3.53;1.30;;;;;;;;;;5019168;28;20225;-84
2022/11/03 03:08:37;;;;;;;5.07;1.60;;;;;;;;;;5023567;28;20284;-86
2022/11/03 03:11:03;;;;;;;4.67;1.90;;;;;;;;;;5010057;28;20235;-86
2022/11/03 03:13:31;;;;;;;4.03;1.40;;;;;;;;;;5017103;28;20277;-85
2022/11/03 03:15:58;;;;;;;4.73;1.47;;;;;;;;;;4984361;28;20283;-85
2022/11/03 03:18:40;;;;;;;3.60;1.40;;;;;;;;;;5016826;28;20304;-84
2022/11/03 03:21:36;;;;;;;3.73;1.43;;;;;;;;;;4974104;28;20599;-83
2022/11/03 03:24:06;;;;;;;7.27;1.60;;;;;;;;;;5013380;28;20227;-85
2022/11/03 03:26:33;;;;;;;3.97;1.47;;;;;;;;;;5003771;28;20225;-84
2022/11/03 03:29:04;;;;;;;7.47;1.43;;;;;;;;;;5009216;28;20232;-86
2022/11/03 03:31:31;;;;;;;2.60;1.63;;;;;;;;;;4991368;28;20250;-85
2022/11/03 03:33:57;;;;;;;7.10;2.00;;;;;;;;;;5006145;28;20259;-85
2022/11/03 03:36:23;;;;;;;4.33;1.50;;;;;;;;;;4990744;28;20228;-86
2022/11/03 03:38:54;;;;;;;6.03;1.60;;;;;;;;;;4985402;28;20227;-85
2022/11/03 03:41:22;;;;;;;3.33;1.67;;;;;;;;;;4964630;28;20257;-84
2022/11/03 03:43:52;;;;;;;3.50;1.40;;;;;;;;;;5011042;28;20287;-85
2022/11/03 03:46:20;;;;;;;4.00;1.67;;;;;;;;;;5002990;28;20228;-85
2022/11/03 03:48:48;;;;;;;5.00;1.67;;;;;;;;;;5003785;28;20275;-85
2022/11/03 03:51:15;;;;;;;2.87;1.30;;;;;;;;;;5001173;28;20229;-85
2022/11/03 03:53:40;;;;;;;6.03;1.77;;;;;;;;;;4994134;28;20225;-84
2022/11/03 03:56:06;;;;;;;3.77;1.83;;;;;;;;;;4979344;28;20232;-83
2022/11/03 03:58:31;;;;;;;3.27;1.67;;;;;;;;;;5023216;28;20276;-83
2022/11/03 04:00:57;;;;;;;3.00;1.40;;;;;;;;;;5013204;28;20229;-84
2022/11/03 04:03:24;;;;;;;7.57;2.73;;;;;;;;;;5001187;28;20272;-82
2022/11/03 04:05:54;;;;;;;20.33;7.50;;;;;;;;;;5004012;28;20232;-84
2022/11/03 04:08:20;;;;;;;27.53;12.70;;;;;;;;;;5006648;28;20252;-83
2022/11/03 04:24:32;;;;;;;3.70;1.50;;;;;;;;;;5025241;28;20717;-83
2022/11/03 04:27:19;;;;;;;5.87;2.20;;;;;;;;;;5002785;28;20273;-83
2022/11/03 04:29:44;;;;;;;2.57;1.50;;;;;;;;;;5017600;28;20225;-82
2022/11/03 04:32:15;;;;;;;3.63;2.00;;;;;;;;;;5007700;28;20234;-83
2022/11/03 04:34:41;;;;;;;6.60;3.10;;;;;;;;;;4999985;28;20229;-82
2022/11/03 04:37:11;;;;;;;3.63;1.70;;;;;;;;;;4989978;28;20222;-81
2022/11/03 04:39:37;;;;;;;3.83;1.70;;;;;;;;;;4995691;28;20230;-83
2022/11/03 04:42:10;;;;;;;3.13;1.57;;;;;;;;;;5016628;28;20281;-81
2022/11/03 04:44:36;;;;;;;4.07;1.60;;;;;;;;;;4986787;28;20218;-84
2022/11/03 04:47:06;;;;;;;8.30;2.07;;;;;;;;;;4973032;28;20225;-84
2022/11/03 04:49:32;;;;;;;3.07;1.60;;;;;;;;;;5000625;28;20230;-85
2022/11/03 04:51:57;;;;;;;6.27;2.03;;;;;;;;;;5001263;28;20712;-83
2022/11/03 04:54:23;;;;;;;5.47;1.60;;;;;;;;;;4975394;28;20240;-84
2022/11/03 04:56:49;;;;;;;7.23;1.63;;;;;;;;;;5011655;28;20316;-85
2022/11/03 04:59:19;;;;;;;6.33;1.63;;;;;;;;;;4989017;28;20256;-84
2022/11/03 05:01:44;;;;;;;3.53;1.57;;;;;;;;;;5007807;28;20306;-84
2022/11/03 05:04:15;;;;;;;3.37;1.27;;;;;;;;;;5002517;28;20705;-85
2022/11/03 05:06:43;;;;;;;5.53;1.70;;;;;;;;;;4988335;28;20227;-82
2022/11/03 05:09:18;;;;;;;5.00;1.80;;;;;;;;;;4984280;28;20218;-83
2022/11/03 05:11:46;;;;;;;5.87;1.93;;;;;;;;;;4989141;28;20221;-84
2022/11/03 05:14:17;;;;;;;5.07;1.80;;;;;;;;;;4989027;28;20209;-85
2022/11/03 05:16:43;;;;;;;2.97;1.57;;;;;;;;;;5009686;28;20300;-83
2022/11/03 05:19:29;;;;;;;5.53;2.20;;;;;;;;;;4972155;28;20222;-84
2022/11/03 05:21:57;;;;;;;3.30;1.60;;;;;;;;;;4994242;28;20244;-85
2022/11/03 05:24:29;;;;;;;6.17;1.97;;;;;;;;;;4990187;28;20308;-83
2022/11/03 05:26:55;;;;;;;6.67;2.23;;;;;;;;;;4998498;28;20702;-84
2022/11/03 05:29:25;;;;;;;6.07;2.07;;;;;;;;;;4983257;28;20305;-83
2022/11/03 05:31:53;;;;;;;5.27;1.70;;;;;;;;;;5004108;28;20225;-82
2022/11/03 05:34:31;;;;;;;4.80;1.57;;;;;;;;;;4992310;28;20229;-85
2022/11/03 05:37:07;;;;;;;3.97;2.20;;;;;;;;;;5016827;28;20224;-83
2022/11/03 05:39:37;;;;;;;3.80;2.27;;;;;;;;;;4991306;28;20228;-84
2022/11/03 05:42:21;;;;;;;7.20;4.43;;;;;;;;;;5013701;28;20245;-83
2022/11/03 05:44:50;;;;;;;3.93;2.20;;;;;;;;;;5016414;28;20220;-80
2022/11/03 05:47:18;;;;;;;3.27;1.90;;;;;;;;;;4989598;28;20220;-83
2022/11/03 05:49:43;;;;;;;4.73;1.90;;;;;;;;;;5014580;28;20224;-84
2022/11/03 05:52:13;;;;;;;4.27;1.70;;;;;;;;;;4998385;28;20292;-85
2022/11/03 05:54:41;;;;;;;4.27;1.80;;;;;;;;;;4999949;28;20783;-84
2022/11/03 05:57:13;;;;;;;3.50;1.73;;;;;;;;;;4997749;28;20217;-85
2022/11/03 05:59:38;;;;;;;6.37;1.60;;;;;;;;;;4993924;28;20216;-84
2022/11/03 06:02:04;;;;;;;4.87;1.60;;;;;;;;;;4975133;28;20426;-82
2022/11/03 06:04:32;;;;;;;5.70;1.40;;;;;;;;;;5031739;28;20224;-84
2022/11/03 06:06:57;;;;;;;4.07;3.47;;;;;;;;;;5028240;28;20220;-83
2022/11/03 06:09:24;;;;;;;5.53;2.30;;;;;;;;;;5025317;28;20693;-83
2022/11/03 06:12:04;;;;;;;3.70;1.30;;;;;;;;;;5011780;28;20243;-85
2022/11/03 06:14:30;;;;;;;7.00;1.63;;;;;;;;;;4985828;28;20232;-82
2022/11/03 06:16:59;;;;;;;5.07;2.20;;;;;;;;;;4987337;28;20228;-85
2022/11/03 06:19:38;;;;;;;3.30;1.70;;;;;;;;;;5030150;28;20255;-82
2022/11/03 06:22:23;;;;;;;4.23;2.10;;;;;;;;;;5018210;28;20243;-83
2022/11/03 06:24:50;;;;;;;6.33;1.80;;;;;;;;;;5005554;28;20217;-82
2022/11/03 06:27:19;;;;;;;6.77;1.93;;;;;;;;;;4969515;28;20301;-82
2022/11/03 06:29:56;;;;;;;5.10;1.77;;;;;;;;;;5005230;28;20229;-83
2022/11/03 06:32:24;;;;;;;3.93;1.53;;;;;;;;;;4979370;28;20224;-82
2022/11/03 06:34:51;;;;;;;6.43;2.03;;;;;;;;;;5017832;28;20226;-80
2022/11/03 06:37:20;;;;;;;3.83;1.60;;;;;;;;;;4992440;28;20213;-83
2022/11/03 06:39:47;;;;;;;3.60;1.43;;;;;;;;;;5010171;28;20246;-85
2022/11/03 06:42:15;;;;;;;3.53;1.50;;;;;;;;;;4979813;28;20284;-84
2022/11/03 06:44:43;;;;;;;3.73;1.73;;;;;;;;;;4972477;28;20224;-85
2022/11/03 06:47:22;;;;;;;3.77;1.30;;;;;;;;;;4999692;28;20239;-83
2022/11/03 06:49:48;;;;;;;4.97;1.70;;;;;;;;;;4998769;28;20225;-83
2022/11/03 06:52:24;;;;;;;3.90;1.70;;;;;;;;;;5002051;28;20224;-83
2022/11/03 06:54:58;;;;;;;2.17;1.67;;;;;;;;;;5019776;28;20308;-83
2022/11/03 06:57:24;;;;;;;3.47;1.57;;;;;;;;;;4995587;28;20244;-83
2022/11/03 06:59:51;;;;;;;4.43;1.50;;;;;;;;;;5020677;28;20220;-83
2022/11/03 07:03:09;;;;;;;3.67;1.43;;;;;;;;;;4984638;28;20758;-83
2022/11/03 07:05:37;;;;;;;3.60;1.20;;;;;;;;;;5017198;28;20224;-83
2022/11/03 07:08:23;;;;;;;2.40;1.57;;;;;;;;;;4967335;28;20344;-84
2022/11/03 07:11:02;;;;;;;4.40;1.70;;;;;;;;;;5007285;28;20255;-84
2022/11/03 07:13:28;;;;;;;3.03;1.40;;;;;;;;;;5004853;28;20392;-80
2022/11/03 07:15:55;;;;;;;7.03;1.77;;;;;;;;;;4998349;28;20322;-84
2022/11/03 07:18:34;;;;;;;3.27;1.47;;;;;;;;;;4988072;28;20239;-83
2022/11/03 07:24:20;;;;;;;4.40;1.23;;;;;;;;;;4991734;28;20285;-83
2022/11/03 07:26:46;;;;;;;3.93;1.53;;;;;;;;;;5001609;28;20685;-82
2022/11/03 07:29:20;;;;;;;2.97;1.40;;;;;;;;;;4995506;28;20211;-84
2022/11/03 07:31:45;;;;;;;5.23;1.57;;;;;;;;;;5003794;28;20282;-82
2022/11/03 07:34:14;;;;;;;7.93;1.80;;;;;;;;;;4994017;28;20246;-84
2022/11/03 07:36:40;;;;;;;3.77;1.50;;;;;;;;;;4971861;28;20234;-82
2022/11/03 07:39:10;;;;;;;5.07;1.47;;;;;;;;;;4966680;28;20235;-82
2022/11/03 07:41:35;;;;;;;3.93;1.67;;;;;;;;;;5022479;28;20255;-84
2022/11/03 07:44:01;;;;;;;6.00;1.60;;;;;;;;;;5021769;28;20221;-82
2022/11/03 07:46:32;;;;;;;3.90;1.50;;;;;;;;;;4965945;28;20255;-83
2022/11/03 07:49:00;;;;;;;2.23;1.30;;;;;;;;;;4996876;28;20244;-83
2022/11/03 07:51:33;;;;;;;3.70;1.60;;;;;;;;;;4991929;28;20677;-84
2022/11/03 07:54:07;;;;;;;2.77;2.00;;;;;;;;;;4990651;28;20625;-85
2022/11/03 07:56:42;;;;;;;5.00;1.90;;;;;;;;;;4992575;28;20224;-83
2022/11/03 07:59:08;;;;;;;3.50;1.50;;;;;;;;;;5006340;28;20228;-83
2022/11/03 08:01:39;;;;;;;2.87;1.50;;;;;;;;;;5015700;28;20244;-84
2022/11/03 08:04:08;;;;;;;4.50;1.77;;;;;;;;;;4983111;28;20281;-83
2022/11/03 08:06:34;;;;;;;3.10;1.43;;;;;;;;;;5033511;28;20224;-82
2022/11/03 08:08:59;;;;;;;4.03;1.97;;;;;;;;;;5010391;28;20282;-84
2022/11/03 08:11:25;;;;;;;3.03;1.30;;;;;;;;;;4984710;28;20228;-82
2022/11/03 08:13:53;;;;;;;2.80;1.47;;;;;;;;;;4985661;28;20709;-82
2022/11/03 08:16:21;;;;;;;4.07;2.03;;;;;;;;;;4976088;28;20364;-82
2022/11/03 08:18:46;;;;;;;3.10;1.73;;;;;;;;;;4987163;28;20251;-83
2022/11/03 08:21:16;;;;;;;5.47;1.80;;;;;;;;;;4977897;28;20216;-81
2022/11/03 08:23:41;;;;;;;5.30;1.77;;;;;;;;;;4995342;28;21025;-85
2022/11/03 08:26:10;;;;;;;3.70;1.50;;;;;;;;;;4979290;28;20307;-82
2022/11/03 08:28:38;;;;;;;8.73;1.87;;;;;;;;;;5008185;28;20232;-84
2022/11/03 08:31:04;;;;;;;5.67;1.90;;;;;;;;;;5013017;28;20232;-83
2022/11/03 08:33:31;;;;;;;3.67;1.57;;;;;;;;;;5009450;28;20228;-83
2022/11/03 08:35:59;;;;;;;4.33;1.77;;;;;;;;;;4986166;28;20221;-84
2022/11/03 08:38:25;;;;;;;2.80;1.47;;;;;;;;;;5015567;28;20216;-82
2022/11/03 08:40:54;;;;;;;4.77;1.50;;;;;;;;;;4966702;28;20227;-82
2022/11/03 08:43:22;;;;;;;3.83;1.60;;;;;;;;;;5001309;28;20263;-84
2022/11/03 08:45:52;;;;;;;4.00;1.67;;;;;;;;;;5035398;28;20224;-83
2022/11/03 08:48:26;;;;;;;2.67;1.57;;;;;;;;;;5004093;28;20240;-83
2022/11/03 08:50:53;;;;;;;5.57;1.60;;;;;;;;;;4991202;28;20237;-84
2022/11/03 08:53:19;;;;;;;2.67;1.33;;;;;;;;;;5009747;28;20235;-83
2022/11/03 08:55:44;;;;;;;3.80;1.70;;;;;;;;;;4996843;28;20224;-85
2022/11/03 08:58:09;;;;;;;4.03;1.77;;;;;;;;;;5019735;28;20302;-84
2022/11/03 09:00:35;;;;;;;5.77;1.73;;;;;;;;;;4988348;28;20232;-83
2022/11/03 09:03:01;;;;;;;3.83;1.50;;;;;;;;;;4985159;28;20225;-83
2022/11/03 09:05:27;;;;;;;4.37;1.60;;;;;;;;;;4991075;28;20304;-84
2022/11/03 09:07:54;;;;;;;9.07;1.93;;;;;;;;;;4989633;28;20917;-81
2022/11/03 09:10:20;;;;;;;2.43;1.33;;;;;;;;;;5011892;28;20247;-85
2022/11/03 09:12:45;;;;;;;4.60;1.70;;;;;;;;;;5006296;28;20709;-83
2022/11/03 09:15:11;;;;;;;3.47;1.60;;;;;;;;;;5019925;28;20228;-84
2022/11/03 09:17:39;;;;;;;6.30;1.70;;;;;;;;;;5019811;28;20303;-82
2022/11/03 09:20:05;;;;;;;3.27;1.80;;;;;;;;;;4991428;28;20227;-84
2022/11/03 09:22:30;;;;;;;11.43;2.33;;;;;;;;;;4998711;28;20231;-83
2022/11/03 09:24:56;;;;;;;3.60;1.50;;;;;;;;;;5014546;28;20224;-83
2022/11/03 09:27:21;;;;;;;3.10;1.50;;;;;;;;;;5004293;28;20283;-83
2022/11/03 09:29:47;;;;;;;4.67;2.03;;;;;;;;;;4998147;28;20219;-83
2022/11/03 09:32:12;;;;;;;3.93;1.60;;;;;;;;;;5011790;28;20235;-84
2022/11/03 09:34:40;;;;;;;5.37;1.70;;;;;;;;;;4992681;28;20224;-83
2022/11/03 09:37:06;;;;;;;5.43;1.63;;;;;;;;;;5001975;28;20248;-84
2022/11/03 09:39:34;;;;;;;2.20;1.37;;;;;;;;;;4988917;28;20229;-86
2022/11/03 09:42:02;;;;;;;6.00;2.00;;;;;;;;;;5015423;28;20224;-85
2022/11/03 09:44:30;;;;;;;5.30;1.80;;;;;;;;;;5002416;28;20224;-83
2022/11/03 09:46:56;;;;;;;6.43;1.70;;;;;;;;;;5001028;28;20229;-83
2022/11/03 09:49:21;;;;;;;3.70;1.60;;;;;;;;;;4986748;28;20234;-82
2022/11/03 09:51:47;;;;;;;6.57;1.65;;;;;;;;;;5024372;28;20712;-85
2022/11/03 09:54:14;;;;;;;2.80;1.40;;;;;;;;;;5001909;28;20233;-86
2022/11/03 09:56:40;;;;;;;4.33;1.47;;;;;;;;;;4992539;28;20228;-84
2022/11/03 09:59:26;;;;;;;4.05;1.63;;;;;;;;;;4991930;28;20298;-83
2022/11/03 10:01:52;;;;;;;2.90;1.50;;;;;;;;;;4967708;28;20232;-83
2022/11/03 10:04:27;;;;;;;4.97;2.00;;;;;;;;;;4965678;28;20233;-83
2022/11/03 10:07:42;;;;;;;3.10;1.45;;;;;;;;;;4996533;28;20220;-85
2022/11/03 10:10:21;;;;;;;3.60;1.60;;;;;;;;;;5032115;28;20239;-84
2022/11/03 10:12:52;;;;;;;4.25;1.50;;;;;;;;;;5012529;28;20233;-85
2022/11/03 10:15:21;;;;;;;4.70;1.60;;;;;;;;;;5003546;28;20232;-83
2022/11/03 10:17:49;;;;;;;4.27;1.57;;;;;;;;;;4982378;28;20280;-83
2022/11/03 10:20:16;;;;;;;3.73;1.53;;;;;;;;;;4989137;28;20223;-84
2022/11/03 10:22:42;;;;;;;2.28;1.38;;;;;;;;;;5019338;28;20244;-84
2022/11/03 10:25:27;;;;;;;2.08;1.33;;;;;;;;;;5000680;28;20224;-86
2022/11/03 10:28:16;;;;;;;3.63;1.52;;;;;;;;;;5012609;28;20290;-84
2022/11/03 10:30:54;;;;;;;6.50;1.75;;;;;;;;;;5017735;28;20233;-84
2022/11/03 10:33:35;;;;;;;4.00;1.50;;;;;;;;;;5033389;28;20248;-84
2022/11/03 10:36:25;;;;;;;3.55;1.45;;;;;;;;;;4991528;28;20274;-84
2022/11/03 10:38:54;;;;;;;6.50;1.63;;;;;;;;;;4990557;28;20243;-84
2022/11/03 10:41:23;;;;;;;4.10;1.27;;;;;;;;;;4997643;28;20229;-85
2022/11/03 10:44:04;;;;;;;3.63;1.48;;;;;;;;;;5027379;28;20227;-83
2022/11/03 10:46:30;;;;;;;3.08;1.48;;;;;;;;;;5016123;28;20216;-82
2022/11/03 10:49:18;;;;;;;3.88;1.73;;;;;;;;;;4998901;28;20236;-82
2022/11/03 10:51:46;;;;;;;4.00;1.52;;;;;;;;;;5020870;28;20224;-83
2022/11/03 10:54:13;;;;;;;4.50;1.40;;;;;;;;;;5013564;28;20225;-83
2022/11/03 10:56:39;;;;;;;5.47;1.60;;;;;;;;;;5004709;28;20238;-84
2022/11/03 10:59:04;;;;;;;3.72;1.58;;;;;;;;;;5001779;28;20228;-82
2022/11/03 11:01:32;;;;;;;4.63;1.63;;;;;;;;;;5015125;28;20685;-83
2022/11/03 11:03:58;;;;;;;3.00;1.42;;;;;;;;;;5021761;28;21089;-84
2022/11/03 11:06:23;;;;;;;5.38;1.92;;;;;;;;;;4990101;28;20229;-83
2022/11/03 11:08:53;;;;;;;3.63;1.70;;;;;;;;;;5000086;28;20262;-83
2022/11/03 11:11:21;;;;;;;6.30;1.77;;;;;;;;;;5020819;28;20316;-83
2022/11/03 11:14:22;;;;;;;4.80;1.60;;;;;;;;;;5023978;28;20217;-83
2022/11/03 11:16:51;;;;;;;2.85;1.52;;;;;;;;;;5026992;28;20213;-83
2022/11/03 11:19:19;;;;;;;3.08;1.38;;;;;;;;;;5016626;28;20239;-83
2022/11/03 11:21:46;;;;;;;4.63;1.88;;;;;;;;;;5032364;28;20215;-82
2022/11/03 11:24:12;;;;;;;6.15;1.77;;;;;;;;;;5029006;28;20240;-83
2022/11/03 11:26:38;;;;;;;3.35;1.60;;;;;;;;;;5016024;28;20228;-82
2022/11/03 11:29:10;;;;;;;4.22;1.65;;;;;;;;;;4998379;28;20235;-85
2022/11/03 11:32:13;;;;;;;3.17;1.65;;;;;;;;;;5048691;28;20221;-84
2022/11/03 11:34:39;;;;;;;3.40;1.50;;;;;;;;;;5040371;28;20422;-83
2022/11/03 11:37:04;;;;;;;4.45;1.50;;;;;;;;;;4993713;28;20853;-83
2022/11/03 11:39:30;;;;;;;3.22;1.58;;;;;;;;;;5028539;28;20231;-83
2022/11/03 11:42:18;;;;;;;2.47;1.50;;;;;;;;;;5036826;28;20217;-84
2022/11/03 11:44:48;;;;;;;6.70;1.63;;;;;;;;;;5012078;28;20226;-84
2022/11/03 11:47:42;;;;;;;3.63;1.58;;;;;;;;;;5036048;28;20256;-83
2022/11/03 11:50:10;;;;;;;3.63;1.55;;;;;;;;;;5033730;28;20263;-83
2022/11/03 11:52:39;;;;;;;2.83;1.52;;;;;;;;;;5032095;28;20232;-83
2022/11/03 11:55:15;;;;;;;3.58;1.80;;;;;;;;;;5030246;28;20232;-83
2022/11/03 11:57:41;;;;;;;6.03;1.92;;;;;;;;;;5028310;28;20246;-83
2022/11/03 12:00:18;;;;;;;2.05;1.50;;;;;;;;;;4993291;28;20296;-83
2022/11/03 12:02:45;;;;;;;3.40;1.50;;;;;;;;;;4996034;28;20772;-83
2022/11/03 12:05:20;;;;;;;3.40;1.75;;;;;;;;;;5032772;28;20305;-83
2022/11/03 12:07:48;;;;;;;5.05;1.80;;;;;;;;;;5007009;28;20224;-83
2022/11/03 12:10:18;;;;;;;4.20;1.70;;;;;;;;;;5015143;28;20212;-82
2022/11/03 12:12:43;;;;;;;3.08;1.65;;;;;;;;;;4992920;28;20255;-84
2022/11/03 12:15:52;;;;;;;4.95;1.80;;;;;;;;;;4997480;28;20279;-83
2022/11/03 12:18:55;;;;;;;7.65;1.88;;;;;;;;;;5029968;28;20232;-83
2022/11/03 12:21:48;;;;;;;4.30;1.60;;;;;;;;;;5026780;28;20239;-86
2022/11/03 12:24:31;;;;;;;3.22;1.80;;;;;;;;;;5030430;28;20227;-84
2022/11/03 12:26:59;;;;;;;3.58;1.50;;;;;;;;;;5026308;28;20699;-84
2022/11/03 12:29:25;;;;;;;3.78;1.80;;;;;;;;;;5006871;28;20240;-83
2022/11/03 12:31:50;;;;;;;3.67;1.60;;;;;;;;;;4985194;28;20224;-84
2022/11/03 12:34:16;;;;;;;6.28;1.80;;;;;;;;;;4996696;28;20239;-84
2022/11/03 12:36:52;;;;;;;3.78;1.63;;;;;;;;;;4982997;28;20219;-84
2022/11/03 12:39:30;;;;;;;2.40;1.55;;;;;;;;;;4989351;28;20223;-82
2022/11/03 12:41:58;;;;;;;5.40;1.83;;;;;;;;;;5027345;28;20231;-82
2022/11/03 12:44:23;;;;;;;5.22;1.50;;;;;;;;;;5001527;28;20228;-83
2022/11/03 12:46:51;;;;;;;4.20;1.65;;;;;;;;;;5000544;28;20307;-83
2022/11/03 12:49:23;;;;;;;7.45;2.05;;;;;;;;;;5025010;28;20228;-85
2022/11/03 12:51:49;;;;;;;4.90;1.73;;;;;;;;;;5025392;28;20236;-84
2022/11/03 12:54:14;;;;;;;3.53;1.55;;;;;;;;;;5016836;28;20312;-84
2022/11/03 12:56:52;;;;;;;4.25;1.83;;;;;;;;;;5005820;28;20224;-84
2022/11/03 12:59:17;;;;;;;4.40;1.65;;;;;;;;;;5026581;28;20669;-82
2022/11/03 13:01:43;;;;;;;3.30;1.70;;;;;;;;;;4998962;28;20216;-84
2022/11/03 13:04:13;;;;;;;3.38;2.08;;;;;;;;;;4997857;28;20221;-80
2022/11/03 13:06:39;;;;;;;4.80;1.70;;;;;;;;;;5015065;28;20217;-85
2022/11/03 13:09:06;;;;;;;3.78;1.58;;;;;;;;;;4978651;28;20232;-85
2022/11/03 13:14:25;;;;;;;3.10;1.30;;;;;;;;;;5029061;28;20228;-82
2022/11/03 13:16:51;;;;;;;4.22;1.90;;;;;;;;;;5024779;28;20220;-84
2022/11/03 13:19:19;;;;;;;2.30;1.40;;;;;;;;;;4993872;28;20225;-83
2022/11/03 13:22:02;;;;;;;4.30;1.63;;;;;;;;;;4996033;28;20236;-84
2022/11/03 13:24:32;;;;;;;3.05;1.48;;;;;;;;;;5010068;28;20605;-83
2022/11/03 13:27:00;;;;;;;4.13;1.67;;;;;;;;;;4993972;28;20231;-82
2022/11/03 13:29:26;;;;;;;3.88;1.83;;;;;;;;;;5015919;28;20670;-85
2022/11/03 13:31:57;;;;;;;2.92;1.27;;;;;;;;;;4976298;28;20262;-85
2022/11/03 13:34:23;;;;;;;3.42;1.35;;;;;;;;;;4988273;23;20351;-76
2022/11/03 13:36:51;;;;;;;3.20;1.40;;;;;;;;;;4991211;28;20226;-75
2022/11/03 13:39:21;;;;;;;3.22;1.30;;;;;;;;;;4983786;28;20251;-76
2022/11/03 13:41:47;;;;;;;3.13;1.20;;;;;;;;;;4990015;28;20228;-75
2022/11/03 13:44:14;;;;;;;5.22;1.60;;;;;;;;;;5000995;28;20224;-74
2022/11/03 13:46:42;;;;;;;4.20;1.52;;;;;;;;;;4981290;28;20279;-75
2022/11/03 13:49:10;;;;;;;6.00;1.48;;;;;;;;;;4995819;28;20231;-75
2022/11/03 13:51:38;;;;;;;2.97;1.45;;;;;;;;;;4999096;28;20225;-76
2022/11/03 13:54:04;;;;;;;3.03;1.30;;;;;;;;;;5000990;28;20232;-75
2022/11/03 13:56:29;;;;;;;3.70;1.70;;;;;;;;;;4989162;28;20217;-75
2022/11/03 13:58:55;;;;;;;3.15;1.50;;;;;;;;;;5000914;28;20224;-75
2022/11/03 14:01:23;;;;;;;3.15;1.58;;;;;;;;;;4984888;28;20312;-75
2022/11/03 14:03:48;;;;;;;3.07;1.50;;;;;;;;;;4964846;28;20296;-75
2022/11/03 14:06:16;;;;;;;2.58;1.40;;;;;;;;;;4998557;28;20225;-74
2022/11/03 14:08:44;;;;;;;3.65;1.80;;;;;;;;;;4984059;28;20221;-75
2022/11/03 14:14:00;;;;;;;3.08;1.60;;;;;;;;;;5001774;28;20232;-76
2022/11/03 14:16:26;;;;;;;3.80;1.40;;;;;;;;;;5013379;28;20221;-77
2022/11/03 14:18:54;;;;;;;1.52;1.23;;;;;;;;;;4995369;28;20221;-77
2022/11/03 14:21:20;;;;;;;3.83;1.60;;;;;;;;;;4976620;28;20225;-76
2022/11/03 14:23:45;;;;;;;3.53;1.30;;;;;;;;;;4985842;28;20225;-76
2022/11/03 14:26:13;;;;;;;2.65;1.45;;;;;;;;;;4989139;28;20646;-76
2022/11/03 14:28:41;;;;;;;4.57;1.60;;;;;;;;;;4968453;28;20605;-76
2022/11/03 14:31:06;;;;;;;2.17;1.38;;;;;;;;;;5003547;28;20316;-76
2022/11/03 14:33:37;;;;;;;3.35;1.50;;;;;;;;;;4977067;28;20910;-75
2022/11/03 14:36:03;;;;;;;2.92;1.20;;;;;;;;;;4983812;28;20234;-76
2022/11/03 14:38:30;;;;;;;2.72;1.50;;;;;;;;;;4982016;28;20221;-76
2022/11/03 14:43:45;;;;;;;3.42;1.33;;;;;;;;;;5001397;28;20295;-76
2022/11/03 14:46:11;;;;;;;3.10;1.48;;;;;;;;;;4988064;28;20293;-77
2022/11/03 14:48:36;;;;;;;3.30;1.40;;;;;;;;;;5000113;28;20228;-74
2022/11/03 14:51:02;;;;;;;2.67;1.60;;;;;;;;;;4984229;28;20651;-77
2022/11/03 14:53:30;;;;;;;2.38;1.55;;;;;;;;;;4976143;28;20216;-76
2022/11/03 14:55:58;;;;;;;2.33;1.60;;;;;;;;;;4983131;28;20228;-76
2022/11/03 14:58:23;;;;;;;1.77;1.47;;;;;;;;;;5001344;28;20232;-77
2022/11/03 15:00:51;;;;;;;3.17;1.50;;;;;;;;;;4987572;28;20227;-76
2022/11/03 15:03:19;;;;;;;2.37;1.60;;;;;;;;;;4981215;28;20229;-76
2022/11/03 15:05:44;;;;;;;5.97;2.07;;;;;;;;;;4985429;28;20754;-77
2022/11/03 15:08:13;;;;;;;2.33;1.50;;;;;;;;;;5003332;28;20224;-76
2022/11/03 15:10:41;;;;;;;2.75;1.58;;;;;;;;;;4981993;28;20337;-74
2022/11/03 15:13:06;;;;;;;4.00;1.83;;;;;;;;;;4981238;28;20758;-78
2022/11/03 15:15:35;;;;;;;2.13;1.57;;;;;;;;;;4999662;28;20247;-77
2022/11/03 15:18:01;;;;;;;4.70;2.00;;;;;;;;;;5001161;28;20247;-75
2022/11/03 15:20:27;;;;;;;2.47;1.87;;;;;;;;;;4981926;28;20292;-76
2022/11/03 15:22:55;;;;;;;2.93;1.70;;;;;;;;;;4998473;28;20745;-76
2022/11/03 15:25:20;;;;;;;3.97;1.73;;;;;;;;;;4988085;28;20716;-76
2022/11/03 15:27:46;;;;;;;2.17;1.40;;;;;;;;;;4994740;28;20219;-77